Time;durP1;ratioP1;P1;durP2;ratioP2;P2;SDS_P1;SDS_P2;PMS_P1;PMS_P2;Temp;Humidity;BMP_temperature;BMP_pressure;BME280_temperature;BME280_humidity;BME280_pressure;Samples;Min_cycle;Max_cycle;Signal;HPM_P1;HPM_P2
2024/01/19 00:01:56;;;;;;;7.93;6.60;;;;;;;;;;6217445;23;20459;-68
2024/01/19 00:04:22;;;;;;;7.87;7.07;;;;;;;;;;6217172;23;20383;-68
2024/01/19 00:06:48;;;;;;;8.80;6.00;;;;;;;;;;6217340;23;20375;-68
2024/01/19 00:09:14;;;;;;;9.03;6.20;;;;;;;;;;6217437;23;20379;-68
2024/01/19 00:11:41;;;;;;;10.03;8.00;;;;;;;;;;6217446;23;20371;-68
2024/01/19 00:14:07;;;;;;;12.90;7.00;;;;;;;;;;6217194;23;20459;-68
2024/01/19 00:16:33;;;;;;;8.00;6.33;;;;;;;;;;6217337;23;20443;-68
2024/01/19 00:18:59;;;;;;;10.33;7.50;;;;;;;;;;6217432;23;20870;-68
2024/01/19 00:24:29;;;;;;;11.70;7.27;;;;;;;;;;6217064;23;20362;-68
2024/01/19 00:26:55;;;;;;;11.83;7.00;;;;;;;;;;6217230;23;20462;-68
2024/01/19 00:29:21;;;;;;;10.97;6.83;;;;;;;;;;6217344;23;20449;-68
2024/01/19 00:31:48;;;;;;;9.80;7.10;;;;;;;;;;6216781;23;20469;-68
2024/01/19 00:34:14;;;;;;;7.33;6.63;;;;;;;;;;6217028;23;20514;-68
2024/01/19 00:36:40;;;;;;;9.93;6.93;;;;;;;;;;6216701;23;20376;-68
2024/01/19 00:39:07;;;;;;;8.90;6.80;;;;;;;;;;6190167;23;20383;-68
2024/01/19 00:41:33;;;;;;;9.60;7.47;;;;;;;;;;6216962;23;20376;-68
2024/01/19 00:43:59;;;;;;;8.90;7.50;;;;;;;;;;6216440;23;20463;-67
2024/01/19 00:46:25;;;;;;;8.80;7.90;;;;;;;;;;6217551;23;20701;-68
2024/01/19 00:48:51;;;;;;;14.30;7.47;;;;;;;;;;6216681;23;20383;-68
2024/01/19 00:51:18;;;;;;;15.33;7.97;;;;;;;;;;6217623;23;20394;-68
2024/01/19 00:53:46;;;;;;;9.07;7.70;;;;;;;;;;6216638;23;20565;-68
2024/01/19 00:56:15;;;;;;;11.27;8.07;;;;;;;;;;6217249;23;20387;-68
2024/01/19 00:58:42;;;;;;;9.23;7.30;;;;;;;;;;6190207;23;20701;-68
2024/01/19 01:01:08;;;;;;;15.47;7.67;;;;;;;;;;6216856;23;20462;-68
2024/01/19 01:03:34;;;;;;;10.40;7.70;;;;;;;;;;6215878;23;20422;-68
2024/01/19 01:06:00;;;;;;;9.30;6.63;;;;;;;;;;6189841;23;20441;-68
2024/01/19 01:08:27;;;;;;;10.20;7.30;;;;;;;;;;6216519;23;20402;-68
2024/01/19 01:10:54;;;;;;;10.57;8.13;;;;;;;;;;6216649;23;20771;-67
2024/01/19 01:13:20;;;;;;;7.07;6.53;;;;;;;;;;6216719;23;20379;-68
2024/01/19 01:15:46;;;;;;;13.47;7.30;;;;;;;;;;6216678;23;20395;-67
2024/01/19 01:18:12;;;;;;;10.87;7.03;;;;;;;;;;6217106;23;20387;-68
2024/01/19 01:20:39;;;;;;;11.70;7.00;;;;;;;;;;6216446;23;20386;-68
2024/01/19 01:23:05;;;;;;;8.00;6.90;;;;;;;;;;6216634;23;20372;-68
2024/01/19 01:25:31;;;;;;;11.43;7.63;;;;;;;;;;6217178;23;20478;-68
2024/01/19 01:27:57;;;;;;;10.90;7.23;;;;;;;;;;6216543;23;20825;-68
2024/01/19 01:30:26;;;;;;;8.60;6.90;;;;;;;;;;6216498;23;20409;-68
2024/01/19 01:32:52;;;;;;;8.70;7.67;;;;;;;;;;6216262;23;20378;-68
2024/01/19 01:35:18;;;;;;;8.90;8.00;;;;;;;;;;6216457;23;20521;-68
2024/01/19 01:37:44;;;;;;;8.00;6.80;;;;;;;;;;6216401;23;20838;-68
2024/01/19 01:40:13;;;;;;;12.03;7.80;;;;;;;;;;6216256;23;20462;-68
2024/01/19 01:42:39;;;;;;;10.83;7.60;;;;;;;;;;6216450;23;20706;-68
2024/01/19 01:45:05;;;;;;;12.13;8.57;;;;;;;;;;6216447;23;20458;-68
2024/01/19 01:47:32;;;;;;;12.50;7.80;;;;;;;;;;6216608;23;20456;-68
2024/01/19 01:49:58;;;;;;;14.30;7.20;;;;;;;;;;6216098;23;20376;-68
2024/01/19 01:52:24;;;;;;;9.60;7.60;;;;;;;;;;6189367;23;20391;-68
2024/01/19 01:54:52;;;;;;;7.83;6.87;;;;;;;;;;6216089;23;20434;-68
2024/01/19 01:57:21;;;;;;;13.97;7.80;;;;;;;;;;6216423;23;20709;-68
2024/01/19 01:59:50;;;;;;;8.40;7.60;;;;;;;;;;6215875;23;20430;-68
2024/01/19 02:02:16;;;;;;;16.47;7.97;;;;;;;;;;6215964;23;20373;-68
2024/01/19 02:04:42;;;;;;;18.50;8.47;;;;;;;;;;6215940;23;20477;-68
2024/01/19 02:07:09;;;;;;;11.90;8.77;;;;;;;;;;6215946;23;20367;-68
2024/01/19 02:09:36;;;;;;;11.60;8.80;;;;;;;;;;6216041;23;20418;-68
2024/01/19 02:12:03;;;;;;;8.53;6.70;;;;;;;;;;6215872;23;20411;-68
2024/01/19 02:14:29;;;;;;;10.37;7.30;;;;;;;;;;6216049;23;20431;-68
2024/01/19 02:16:55;;;;;;;12.23;8.13;;;;;;;;;;6216200;23;20379;-68
2024/01/19 02:19:21;;;;;;;12.47;7.60;;;;;;;;;;6216213;23;20425;-68
2024/01/19 02:21:48;;;;;;;11.47;7.00;;;;;;;;;;6216119;23;20375;-68
2024/01/19 02:24:18;;;;;;;13.70;6.80;;;;;;;;;;6216057;23;20437;-68
2024/01/19 02:26:44;;;;;;;9.37;8.13;;;;;;;;;;6215988;23;20375;-68
2024/01/19 02:29:10;;;;;;;11.40;7.10;;;;;;;;;;6216336;23;20367;-68
2024/01/19 02:31:36;;;;;;;11.30;7.53;;;;;;;;;;6215748;23;20860;-68
2024/01/19 02:34:02;;;;;;;10.53;7.67;;;;;;;;;;6215975;23;20542;-68
2024/01/19 02:36:28;;;;;;;7.90;6.57;;;;;;;;;;6215641;23;20845;-68
2024/01/19 02:38:54;;;;;;;16.70;7.67;;;;;;;;;;6216066;23;20761;-68
2024/01/19 02:41:20;;;;;;;19.83;9.30;;;;;;;;;;6216046;23;20397;-68
2024/01/19 02:43:46;;;;;;;6.93;6.33;;;;;;;;;;6215627;23;20417;-68
2024/01/19 02:46:14;;;;;;;8.23;6.50;;;;;;;;;;6216234;23;20744;-68
2024/01/19 02:48:40;;;;;;;10.93;7.10;;;;;;;;;;6215657;23;20371;-68
2024/01/19 02:51:06;;;;;;;15.63;8.50;;;;;;;;;;6216216;23;20385;-68
2024/01/19 02:53:32;;;;;;;7.73;7.03;;;;;;;;;;6215534;23;20419;-68
2024/01/19 02:55:59;;;;;;;12.53;7.10;;;;;;;;;;6215608;23;20720;-68
2024/01/19 02:58:25;;;;;;;11.80;7.57;;;;;;;;;;6215810;23;20378;-67
2024/01/19 03:00:51;;;;;;;7.47;6.47;;;;;;;;;;6215313;23;20764;-68
2024/01/19 03:03:17;;;;;;;7.80;7.00;;;;;;;;;;6215563;23;20516;-68
2024/01/19 03:05:43;;;;;;;9.87;6.83;;;;;;;;;;6215263;23;20451;-68
2024/01/19 03:08:09;;;;;;;11.43;7.50;;;;;;;;;;6215603;23;20383;-68
2024/01/19 03:10:35;;;;;;;12.90;8.10;;;;;;;;;;6216355;23;20820;-68
2024/01/19 03:13:01;;;;;;;8.70;7.57;;;;;;;;;;6188796;23;20390;-68
2024/01/19 03:15:27;;;;;;;7.23;6.50;;;;;;;;;;6215211;23;20943;-68
2024/01/19 03:17:53;;;;;;;9.53;6.90;;;;;;;;;;6215409;23;20387;-68
2024/01/19 03:20:19;;;;;;;11.20;7.37;;;;;;;;;;6215450;23;20380;-68
2024/01/19 03:22:45;;;;;;;10.03;7.23;;;;;;;;;;6215655;23;20378;-68
2024/01/19 03:25:11;;;;;;;13.60;7.67;;;;;;;;;;6215700;23;20380;-68
2024/01/19 03:27:37;;;;;;;12.97;6.70;;;;;;;;;;6215211;23;20379;-68
2024/01/19 03:30:04;;;;;;;7.80;7.00;;;;;;;;;;6216087;23;20375;-68
2024/01/19 03:32:30;;;;;;;10.47;7.83;;;;;;;;;;6215741;23;20395;-68
2024/01/19 03:34:56;;;;;;;12.50;7.97;;;;;;;;;;6215486;23;20519;-68
2024/01/19 03:37:22;;;;;;;8.60;7.87;;;;;;;;;;6215335;23;20387;-68
2024/01/19 03:39:48;;;;;;;13.50;7.47;;;;;;;;;;6215671;23;20841;-68
2024/01/19 03:42:14;;;;;;;11.90;8.13;;;;;;;;;;6215341;23;20445;-68
2024/01/19 03:44:40;;;;;;;7.90;6.73;;;;;;;;;;6215661;23;20757;-68
2024/01/19 03:47:06;;;;;;;15.87;8.97;;;;;;;;;;6215666;23;20421;-68
2024/01/19 03:49:34;;;;;;;9.47;7.60;;;;;;;;;;6215651;23;20406;-68
2024/01/19 03:52:04;;;;;;;7.13;6.30;;;;;;;;;;6215851;23;20430;-68
2024/01/19 03:54:30;;;;;;;7.30;6.60;;;;;;;;;;6215128;23;20781;-68
2024/01/19 03:56:58;;;;;;;12.53;7.97;;;;;;;;;;6215594;23;20375;-68
2024/01/19 03:59:24;;;;;;;9.70;7.40;;;;;;;;;;6215017;23;21026;-68
2024/01/19 04:01:50;;;;;;;7.20;6.50;;;;;;;;;;6215237;23;20403;-68
2024/01/19 04:04:16;;;;;;;10.00;6.57;;;;;;;;;;6215516;23;20378;-68
2024/01/19 04:06:43;;;;;;;12.47;7.53;;;;;;;;;;6215223;23;20383;-68
2024/01/19 04:09:09;;;;;;;7.83;6.33;;;;;;;;;;6215141;23;20368;-68
2024/01/19 04:11:36;;;;;;;8.57;6.73;;;;;;;;;;6215277;23;20418;-68
2024/01/19 04:14:02;;;;;;;7.60;6.50;;;;;;;;;;6215394;23;20425;-68
2024/01/19 04:16:28;;;;;;;7.83;6.70;;;;;;;;;;6215426;23;20371;-68
2024/01/19 04:18:54;;;;;;;12.67;7.33;;;;;;;;;;6216941;23;20948;-68
2024/01/19 04:21:20;;;;;;;7.47;6.33;;;;;;;;;;6216943;23;20390;-68
2024/01/19 04:23:46;;;;;;;6.73;5.80;;;;;;;;;;6190368;23;20387;-68
2024/01/19 04:26:12;;;;;;;7.40;6.70;;;;;;;;;;6217238;23;20380;-68
2024/01/19 04:28:39;;;;;;;6.77;5.50;;;;;;;;;;6216813;23;20470;-68
2024/01/19 04:31:06;;;;;;;8.10;6.77;;;;;;;;;;6217040;23;20406;-68
2024/01/19 04:33:32;;;;;;;10.17;6.33;;;;;;;;;;6217160;23;20740;-68
2024/01/19 04:35:58;;;;;;;7.03;6.23;;;;;;;;;;6216819;23;20379;-68
2024/01/19 04:38:24;;;;;;;8.03;6.20;;;;;;;;;;6217064;23;20381;-68
2024/01/19 04:40:50;;;;;;;6.33;5.60;;;;;;;;;;6217204;23;20754;-68
2024/01/19 04:43:17;;;;;;;15.77;9.23;;;;;;;;;;6217091;23;20375;-68
2024/01/19 04:45:43;;;;;;;7.73;5.93;;;;;;;;;;6217036;23;20390;-68
2024/01/19 04:48:09;;;;;;;8.07;6.30;;;;;;;;;;6216831;23;20376;-68
2024/01/19 04:50:35;;;;;;;12.30;5.40;;;;;;;;;;6217091;23;20399;-68
2024/01/19 04:53:01;;;;;;;6.17;5.67;;;;;;;;;;6190398;23;20697;-68
2024/01/19 04:55:27;;;;;;;8.47;5.70;;;;;;;;;;6216901;23;21015;-68
2024/01/19 04:57:53;;;;;;;6.00;5.17;;;;;;;;;;6216567;23;20425;-68
2024/01/19 05:00:21;;;;;;;5.27;4.93;;;;;;;;;;6216480;23;20430;-68
2024/01/19 05:02:47;;;;;;;6.00;5.40;;;;;;;;;;6216917;23;20409;-68
2024/01/19 05:05:13;;;;;;;6.07;5.47;;;;;;;;;;6216473;23;20375;-68
2024/01/19 05:07:39;;;;;;;7.10;5.83;;;;;;;;;;6216816;23;20374;-68
2024/01/19 05:10:06;;;;;;;7.60;6.00;;;;;;;;;;6216885;23;20394;-68
2024/01/19 05:12:32;;;;;;;6.30;5.43;;;;;;;;;;6216900;23;20379;-68
2024/01/19 05:14:58;;;;;;;6.57;5.37;;;;;;;;;;6216634;23;20760;-68
2024/01/19 05:17:25;;;;;;;6.30;5.40;;;;;;;;;;6216779;23;20381;-68
2024/01/19 05:19:51;;;;;;;5.33;4.93;;;;;;;;;;6216833;23;20466;-68
2024/01/19 05:22:17;;;;;;;6.67;5.97;;;;;;;;;;6216373;23;20890;-68
2024/01/19 05:24:44;;;;;;;5.87;5.47;;;;;;;;;;6216657;23;20387;-68
2024/01/19 05:27:10;;;;;;;6.70;5.97;;;;;;;;;;6216660;23;20650;-68
2024/01/19 05:29:36;;;;;;;8.43;5.70;;;;;;;;;;6216300;23;20383;-68
2024/01/19 05:32:02;;;;;;;8.30;6.40;;;;;;;;;;6216718;23;20398;-68
2024/01/19 05:34:28;;;;;;;9.63;6.43;;;;;;;;;;6216011;23;20434;-68
2024/01/19 05:36:55;;;;;;;9.23;6.07;;;;;;;;;;6217486;23;20379;-68
2024/01/19 05:39:21;;;;;;;5.67;5.30;;;;;;;;;;6216215;23;20690;-68
2024/01/19 05:41:47;;;;;;;9.93;6.73;;;;;;;;;;6216655;23;20837;-68
2024/01/19 05:44:13;;;;;;;10.47;6.87;;;;;;;;;;6216392;23;20446;-68
2024/01/19 05:46:39;;;;;;;5.70;5.37;;;;;;;;;;6216362;23;20379;-68
2024/01/19 05:49:05;;;;;;;6.70;5.30;;;;;;;;;;6216187;23;20379;-68
2024/01/19 05:51:31;;;;;;;5.43;4.90;;;;;;;;;;6216394;23;20378;-68
2024/01/19 05:53:58;;;;;;;5.90;5.40;;;;;;;;;;6216139;23;20422;-68
2024/01/19 05:56:24;;;;;;;6.10;5.53;;;;;;;;;;6216276;23;20387;-67
2024/01/19 05:58:50;;;;;;;10.13;4.83;;;;;;;;;;6215728;23;20390;-68
2024/01/19 06:01:16;;;;;;;7.47;5.97;;;;;;;;;;6216425;23;20382;-68
2024/01/19 06:03:42;;;;;;;7.47;5.80;;;;;;;;;;6216119;23;20386;-68
2024/01/19 06:06:08;;;;;;;9.17;5.83;;;;;;;;;;6216227;23;20415;-68
2024/01/19 06:08:34;;;;;;;8.87;6.13;;;;;;;;;;6217215;23;20434;-68
2024/01/19 06:14:04;;;;;;;5.63;5.23;;;;;;;;;;6215822;23;20422;-67
2024/01/19 06:16:30;;;;;;;5.97;5.57;;;;;;;;;;6216090;23;20383;-68
2024/01/19 06:18:58;;;;;;;12.70;9.00;;;;;;;;;;6216130;23;20375;-68
2024/01/19 06:21:24;;;;;;;9.10;6.73;;;;;;;;;;6215670;23;20869;-68
2024/01/19 06:23:50;;;;;;;7.33;6.73;;;;;;;;;;6216038;23;20415;-68
2024/01/19 06:26:16;;;;;;;16.43;11.40;;;;;;;;;;6215624;23;20371;-68
2024/01/19 06:28:42;;;;;;;15.73;11.77;;;;;;;;;;6216116;23;20693;-68
2024/01/19 06:34:12;;;;;;;9.93;7.50;;;;;;;;;;6215874;23;20516;-68
2024/01/19 06:36:38;;;;;;;15.23;9.87;;;;;;;;;;6215492;23;20371;-68
2024/01/19 06:39:04;;;;;;;17.73;11.30;;;;;;;;;;6215550;23;20416;-67
2024/01/19 06:41:30;;;;;;;16.73;10.60;;;;;;;;;;6215238;23;20700;-68
2024/01/19 06:43:56;;;;;;;12.37;10.27;;;;;;;;;;6215149;23;20417;-68
2024/01/19 06:46:22;;;;;;;11.43;8.47;;;;;;;;;;6216012;23;20446;-68
2024/01/19 06:48:50;;;;;;;8.97;7.23;;;;;;;;;;6215607;23;20406;-67
2024/01/19 06:54:19;;;;;;;10.33;7.40;;;;;;;;;;6215647;23;20477;-68
2024/01/19 06:56:45;;;;;;;14.20;10.40;;;;;;;;;;6215193;23;20367;-68
2024/01/19 06:59:11;;;;;;;19.23;11.27;;;;;;;;;;6214948;23;20430;-67
2024/01/19 07:01:38;;;;;;;53.80;22.57;;;;;;;;;;6215279;23;20359;-67
2024/01/19 07:04:04;;;;;;;20.60;13.50;;;;;;;;;;6215362;23;20379;-68
2024/01/19 07:06:32;;;;;;;28.73;14.60;;;;;;;;;;6215099;23;20429;-68
2024/01/19 07:08:58;;;;;;;33.53;16.60;;;;;;;;;;6215857;23;20383;-68
2024/01/19 07:11:24;;;;;;;19.73;12.40;;;;;;;;;;6215338;23;20456;-68
2024/01/19 07:13:50;;;;;;;21.20;13.90;;;;;;;;;;6215302;23;20430;-68
2024/01/19 07:16:16;;;;;;;18.40;12.70;;;;;;;;;;6215623;23;20458;-68
2024/01/19 07:18:42;;;;;;;53.20;24.80;;;;;;;;;;6215686;23;20914;-69
2024/01/19 07:21:08;;;;;;;11.37;8.77;;;;;;;;;;6215688;23;20383;-68
2024/01/19 07:23:35;;;;;;;33.13;16.43;;;;;;;;;;6215390;23;20398;-68
2024/01/19 07:26:01;;;;;;;61.53;23.80;;;;;;;;;;6215748;23;20395;-68
2024/01/19 07:28:27;;;;;;;15.97;8.93;;;;;;;;;;6215342;23;20371;-68
2024/01/19 07:30:53;;;;;;;13.27;8.77;;;;;;;;;;6215701;23;20392;-68
2024/01/19 07:33:19;;;;;;;16.60;11.27;;;;;;;;;;6215585;23;20462;-68
2024/01/19 07:35:45;;;;;;;22.97;12.57;;;;;;;;;;6215138;23;20395;-68
2024/01/19 07:38:11;;;;;;;16.57;11.77;;;;;;;;;;6216176;23;20371;-68
2024/01/19 07:40:37;;;;;;;20.43;11.40;;;;;;;;;;6215636;23;20918;-78
2024/01/19 07:43:03;;;;;;;16.20;11.27;;;;;;;;;;6215223;23;20390;-68
2024/01/19 07:45:29;;;;;;;20.83;14.30;;;;;;;;;;6215707;23;20371;-67
2024/01/19 07:47:55;;;;;;;24.33;12.70;;;;;;;;;;6215146;23;20759;-68
2024/01/19 07:50:22;;;;;;;17.27;12.20;;;;;;;;;;6215215;23;20422;-68
2024/01/19 07:52:48;;;;;;;18.07;12.17;;;;;;;;;;6215930;23;20375;-68
2024/01/19 07:55:14;;;;;;;17.23;12.50;;;;;;;;;;6217390;23;20426;-68
2024/01/19 07:57:40;;;;;;;21.53;12.70;;;;;;;;;;6217137;23;20368;-68
2024/01/19 08:00:07;;;;;;;20.77;10.90;;;;;;;;;;6217031;23;20457;-68
2024/01/19 08:02:33;;;;;;;17.10;10.80;;;;;;;;;;6217310;23;20383;-68
2024/01/19 08:04:59;;;;;;;14.50;9.27;;;;;;;;;;6217461;23;20413;-68
2024/01/19 08:07:26;;;;;;;12.33;8.90;;;;;;;;;;6217230;23;20371;-68
2024/01/19 08:09:52;;;;;;;13.33;8.83;;;;;;;;;;6191385;23;20418;-69
2024/01/19 08:12:18;;;;;;;9.83;8.83;;;;;;;;;;6217249;23;20379;-68
2024/01/19 08:14:44;;;;;;;30.63;10.50;;;;;;;;;;6216927;23;20762;-69
2024/01/19 08:17:10;;;;;;;22.07;12.60;;;;;;;;;;6217086;23;20368;-68
2024/01/19 08:19:36;;;;;;;20.23;12.73;;;;;;;;;;6217435;23;20381;-68
2024/01/19 08:22:02;;;;;;;18.80;13.10;;;;;;;;;;6215052;23;20409;-69
2024/01/19 08:24:28;;;;;;;17.23;12.30;;;;;;;;;;6216779;23;20458;-69
2024/01/19 08:26:54;;;;;;;13.40;9.97;;;;;;;;;;6216838;23;20370;-69
2024/01/19 08:29:20;;;;;;;13.60;9.10;;;;;;;;;;6216783;23;20875;-69
2024/01/19 08:31:50;;;;;;;21.03;12.40;;;;;;;;;;6217144;23;20383;-69
2024/01/19 08:34:16;;;;;;;13.13;8.93;;;;;;;;;;6216832;23;20434;-69
2024/01/19 08:36:42;;;;;;;20.53;12.50;;;;;;;;;;6190125;23;20414;-69
2024/01/19 08:39:11;;;;;;;17.80;10.83;;;;;;;;;;6216779;23;20375;-69
2024/01/19 08:41:41;;;;;;;10.70;8.20;;;;;;;;;;6217134;23;20398;-69
2024/01/19 08:44:07;;;;;;;11.27;8.20;;;;;;;;;;6217062;23;20422;-69
2024/01/19 08:46:32;;;;;;;15.10;9.23;;;;;;;;;;6216689;23;20745;-69
2024/01/19 08:49:00;;;;;;;15.40;8.50;;;;;;;;;;6216932;23;20458;-68
2024/01/19 08:54:29;;;;;;;8.70;7.37;;;;;;;;;;6216836;23;20429;-68
2024/01/19 08:56:55;;;;;;;9.33;7.40;;;;;;;;;;6216632;23;20458;-68
2024/01/19 08:59:22;;;;;;;8.13;7.20;;;;;;;;;;6217204;23;20826;-69
2024/01/19 09:01:48;;;;;;;9.70;7.70;;;;;;;;;;6216128;23;20385;-68
2024/01/19 09:04:15;;;;;;;11.03;9.30;;;;;;;;;;6215750;23;20454;-68
2024/01/19 09:06:41;;;;;;;11.07;8.63;;;;;;;;;;6216198;23;20474;-68
2024/01/19 09:09:08;;;;;;;8.97;8.07;;;;;;;;;;6216572;23;20411;-68
2024/01/19 09:11:34;;;;;;;12.17;8.80;;;;;;;;;;6189742;23;20383;-68
2024/01/19 09:14:02;;;;;;;15.00;8.83;;;;;;;;;;6217020;23;20419;-68
2024/01/19 09:16:28;;;;;;;9.60;7.83;;;;;;;;;;6217049;23;20737;-68
2024/01/19 09:18:54;;;;;;;12.37;9.17;;;;;;;;;;6216247;23;20367;-68
2024/01/19 09:24:24;;;;;;;27.80;14.17;;;;;;;;;;6216370;23;20370;-69
2024/01/19 09:26:50;;;;;;;27.47;15.00;;;;;;;;;;6216615;23;20453;-68
2024/01/19 09:29:16;;;;;;;22.50;13.97;;;;;;;;;;6216203;23;20830;-68
2024/01/19 09:31:46;;;;;;;18.47;12.00;;;;;;;;;;6216387;23;20379;-68
2024/01/19 09:34:12;;;;;;;16.33;10.33;;;;;;;;;;6216207;23;20418;-68
2024/01/19 09:36:38;;;;;;;23.20;13.30;;;;;;;;;;6216387;23;20880;-68
2024/01/19 09:39:05;;;;;;;20.90;11.03;;;;;;;;;;6216422;23;20508;-68
2024/01/19 09:41:34;;;;;;;13.93;10.47;;;;;;;;;;6216314;23;20386;-68
2024/01/19 09:44:02;;;;;;;12.90;10.03;;;;;;;;;;6216417;23;20446;-69
2024/01/19 09:46:28;;;;;;;17.10;10.07;;;;;;;;;;6216174;23;20379;-68
2024/01/19 09:49:13;;;;;;;9.97;8.00;;;;;;;;;;6215719;23;20423;-69
2024/01/19 09:52:02;;;;;;;12.83;9.87;;;;;;;;;;6216180;23;20383;-68
2024/01/19 09:54:37;;;;;;;13.80;9.77;;;;;;;;;;6215766;23;20966;-68
2024/01/19 09:57:03;;;;;;;14.53;9.93;;;;;;;;;;6216530;23;20390;-68
2024/01/19 09:59:33;;;;;;;9.20;8.40;;;;;;;;;;6216164;23;20431;-68
2024/01/19 10:01:59;;;;;;;10.07;7.80;;;;;;;;;;6216348;23;20825;-69
2024/01/19 10:04:26;;;;;;;12.73;10.23;;;;;;;;;;6215562;23;20432;-68
2024/01/19 10:06:53;;;;;;;13.43;11.13;;;;;;;;;;6216039;23;20457;-68
2024/01/19 10:09:19;;;;;;;13.20;9.60;;;;;;;;;;6215952;23;20382;-69
2024/01/19 10:11:52;;;;;;;13.47;9.37;;;;;;;;;;6215662;23;20418;-69
2024/01/19 10:14:19;;;;;;;10.37;8.47;;;;;;;;;;6215869;23;20450;-68
2024/01/19 10:16:45;;;;;;;11.20;9.20;;;;;;;;;;6215632;23;20497;-69
2024/01/19 10:19:13;;;;;;;7.50;6.83;;;;;;;;;;6189906;23;20723;-68
2024/01/19 10:21:43;;;;;;;9.07;8.03;;;;;;;;;;6216513;23;20383;-69
2024/01/19 10:24:10;;;;;;;8.70;7.90;;;;;;;;;;6215677;23;20418;-69
2024/01/19 10:26:37;;;;;;;12.80;7.90;;;;;;;;;;6215945;23;20423;-68
2024/01/19 10:29:10;;;;;;;13.03;8.33;;;;;;;;;;6215756;23;20922;-68
2024/01/19 10:31:36;;;;;;;16.77;10.60;;;;;;;;;;6215576;23;20848;-69
2024/01/19 10:34:02;;;;;;;11.57;7.90;;;;;;;;;;6215910;23;20427;-69
2024/01/19 10:36:37;;;;;;;10.50;8.57;;;;;;;;;;6215561;23;20379;-69
2024/01/19 10:39:23;;;;;;;9.20;7.00;;;;;;;;;;6215942;23;20374;-68
2024/01/19 10:41:50;;;;;;;10.57;6.83;;;;;;;;;;6215669;23;20386;-69
2024/01/19 10:44:17;;;;;;;7.40;6.70;;;;;;;;;;6215416;23;20420;-69
2024/01/19 10:46:44;;;;;;;9.47;7.60;;;;;;;;;;6215926;23;20455;-69
2024/01/19 10:49:12;;;;;;;9.40;7.10;;;;;;;;;;6215508;23;20386;-68
2024/01/19 10:51:39;;;;;;;8.30;7.33;;;;;;;;;;6215763;23;20410;-69
2024/01/19 10:54:07;;;;;;;12.35;8.27;;;;;;;;;;6213903;23;20408;-66
2024/01/19 10:56:34;;;;;;;9.77;7.57;;;;;;;;;;6216519;23;20510;-69
2024/01/19 10:59:10;;;;;;;9.00;7.90;;;;;;;;;;6215088;23;20457;-69
2024/01/19 11:01:36;;;;;;;9.03;7.50;;;;;;;;;;6215665;23;20352;-69
2024/01/19 11:04:02;;;;;;;7.90;7.00;;;;;;;;;;6215257;23;20379;-70
2024/01/19 11:06:29;;;;;;;6.77;6.07;;;;;;;;;;6215488;23;20383;-69
2024/01/19 11:08:55;;;;;;;12.47;6.80;;;;;;;;;;6215310;23;20395;-69
2024/01/19 11:11:21;;;;;;;6.00;5.50;;;;;;;;;;6215417;23;20461;-68
2024/01/19 11:13:51;;;;;;;5.30;4.83;;;;;;;;;;6189181;23;20430;-69
2024/01/19 11:16:19;;;;;;;6.27;5.73;;;;;;;;;;6215468;23;20414;-69
2024/01/19 11:18:46;;;;;;;7.27;6.13;;;;;;;;;;6214923;23;20821;-70
2024/01/19 11:21:12;;;;;;;6.93;6.10;;;;;;;;;;6215378;23;20893;-70
2024/01/19 11:23:39;;;;;;;6.97;5.10;;;;;;;;;;6215054;23;20371;-69
2024/01/19 11:26:14;;;;;;;9.03;7.43;;;;;;;;;;6214850;23;20478;-69
2024/01/19 11:28:53;;;;;;;7.60;6.83;;;;;;;;;;6216446;23;20371;-69
2024/01/19 11:31:22;;;;;;;7.87;7.17;;;;;;;;;;6217166;23;20367;-69
2024/01/19 11:33:48;;;;;;;9.47;8.70;;;;;;;;;;6218111;23;20884;-69
2024/01/19 11:36:33;;;;;;;6.33;5.83;;;;;;;;;;6217057;23;20916;-69
2024/01/19 11:38:59;;;;;;;5.20;4.87;;;;;;;;;;6218195;23;20411;-69
2024/01/19 11:41:43;;;;;;;6.40;4.80;;;;;;;;;;6217184;23;20374;-69
2024/01/19 11:44:10;;;;;;;5.33;5.03;;;;;;;;;;6217724;23;20375;-70
2024/01/19 11:46:54;;;;;;;6.57;6.07;;;;;;;;;;6217295;23;20390;-68
2024/01/19 11:49:34;;;;;;;4.90;4.50;;;;;;;;;;6217133;23;20367;-69
2024/01/19 11:52:01;;;;;;;5.07;4.60;;;;;;;;;;6217360;23;20386;-70
2024/01/19 11:54:28;;;;;;;5.40;4.63;;;;;;;;;;6216552;23;20573;-69
2024/01/19 11:57:14;;;;;;;7.43;5.60;;;;;;;;;;6216889;23;20390;-70
2024/01/19 11:59:40;;;;;;;8.40;5.17;;;;;;;;;;6217112;23;20430;-70
2024/01/19 12:02:07;;;;;;;6.87;4.97;;;;;;;;;;6217184;23;20450;-70
2024/01/19 12:04:34;;;;;;;4.60;4.23;;;;;;;;;;6217159;23;20885;-70
2024/01/19 12:07:04;;;;;;;5.53;5.03;;;;;;;;;;6216901;23;20386;-70
2024/01/19 12:09:30;;;;;;;3.90;3.70;;;;;;;;;;6190338;23;20391;-69
2024/01/19 12:11:57;;;;;;;4.30;4.00;;;;;;;;;;6216795;23;20371;-70
2024/01/19 12:14:23;;;;;;;7.27;4.97;;;;;;;;;;6216977;23;20450;-70
2024/01/19 12:16:51;;;;;;;4.77;4.33;;;;;;;;;;6217170;23;20433;-71
2024/01/19 12:19:21;;;;;;;3.90;3.60;;;;;;;;;;6216657;23;20379;-69
2024/01/19 12:21:47;;;;;;;3.43;3.20;;;;;;;;;;6190128;23;20383;-72
2024/01/19 12:24:19;;;;;;;3.33;3.13;;;;;;;;;;6216999;23;20383;-72
2024/01/19 12:26:51;;;;;;;2.73;2.63;;;;;;;;;;6217058;23;20805;-69
2024/01/19 12:29:32;;;;;;;2.87;2.67;;;;;;;;;;6217480;23;20407;-69
2024/01/19 12:32:08;;;;;;;2.17;2.07;;;;;;;;;;6217019;23;20406;-70
2024/01/19 12:34:34;;;;;;;3.03;2.90;;;;;;;;;;6216760;23;20457;-70
2024/01/19 12:37:00;;;;;;;3.27;2.97;;;;;;;;;;6216969;23;20398;-69
2024/01/19 12:39:27;;;;;;;2.60;2.40;;;;;;;;;;6217053;23;20367;-70
2024/01/19 12:42:00;;;;;;;2.83;2.60;;;;;;;;;;6217238;23;20383;-70
2024/01/19 12:44:26;;;;;;;2.77;2.67;;;;;;;;;;6216522;23;20372;-70
2024/01/19 12:46:52;;;;;;;2.90;2.80;;;;;;;;;;6217543;23;20378;-70
2024/01/19 12:49:18;;;;;;;2.97;2.70;;;;;;;;;;6216865;23;20401;-70
2024/01/19 12:51:44;;;;;;;7.73;6.77;;;;;;;;;;6216369;23;20386;-71
2024/01/19 12:54:14;;;;;;;2.63;2.53;;;;;;;;;;6216285;23;20431;-70
2024/01/19 12:56:40;;;;;;;3.40;3.20;;;;;;;;;;6216815;23;20359;-70
2024/01/19 12:59:11;;;;;;;3.37;3.10;;;;;;;;;;6216207;23;20454;-69
2024/01/19 13:01:38;;;;;;;3.70;3.50;;;;;;;;;;6189868;23;20418;-70
2024/01/19 13:04:04;;;;;;;5.47;5.07;;;;;;;;;;6216765;23;20391;-69
2024/01/19 13:06:30;;;;;;;3.93;2.77;;;;;;;;;;6189625;23;20395;-70
2024/01/19 13:08:56;;;;;;;9.40;4.90;;;;;;;;;;6216618;23;20389;-70
2024/01/19 13:11:23;;;;;;;3.27;2.63;;;;;;;;;;6216441;23;20406;-70
2024/01/19 13:14:03;;;;;;;2.33;2.23;;;;;;;;;;6216333;23;20762;-69
2024/01/19 13:16:30;;;;;;;2.50;2.50;;;;;;;;;;6189707;23;20425;-70
2024/01/19 13:19:00;;;;;;;1.70;1.60;;;;;;;;;;6216305;23;20916;-70
2024/01/19 13:21:26;;;;;;;2.60;2.50;;;;;;;;;;6216201;23;20458;-70
2024/01/19 13:23:52;;;;;;;2.67;2.57;;;;;;;;;;6189585;23;20383;-70
2024/01/19 13:26:19;;;;;;;2.00;1.90;;;;;;;;;;6216162;23;20379;-70
2024/01/19 13:28:45;;;;;;;1.90;1.90;;;;;;;;;;6216367;23;20861;-70
2024/01/19 13:31:11;;;;;;;1.60;1.60;;;;;;;;;;6189476;23;20384;-70
2024/01/19 13:33:39;;;;;;;2.10;2.00;;;;;;;;;;6216019;23;20849;-69
2024/01/19 13:36:05;;;;;;;3.40;2.37;;;;;;;;;;6216350;23;20406;-70
2024/01/19 13:38:31;;;;;;;2.90;2.80;;;;;;;;;;6216746;23;20377;-70
2024/01/19 13:40:57;;;;;;;2.00;2.00;;;;;;;;;;6216011;23;20417;-70
2024/01/19 13:43:23;;;;;;;2.23;2.07;;;;;;;;;;6216030;23;20371;-70
2024/01/19 13:45:49;;;;;;;3.33;2.43;;;;;;;;;;6216772;23;20675;-69
2024/01/19 13:48:18;;;;;;;1.77;1.77;;;;;;;;;;6216612;23;20382;-70
2024/01/19 13:50:44;;;;;;;1.57;1.57;;;;;;;;;;6215858;23;20372;-70
2024/01/19 13:53:10;;;;;;;1.80;1.70;;;;;;;;;;6215895;23;20433;-70
2024/01/19 13:55:36;;;;;;;2.47;2.40;;;;;;;;;;6215609;23;20920;-70
2024/01/19 13:58:02;;;;;;;2.60;2.50;;;;;;;;;;6215877;23;20395;-70
2024/01/19 14:00:28;;;;;;;1.60;1.47;;;;;;;;;;6215741;23;20432;-69
2024/01/19 14:02:57;;;;;;;3.03;2.83;;;;;;;;;;6215947;23;20698;-70
2024/01/19 14:05:23;;;;;;;2.13;2.13;;;;;;;;;;6189154;23;20405;-70
2024/01/19 14:07:49;;;;;;;2.53;2.47;;;;;;;;;;6216188;23;20923;-70
2024/01/19 14:10:15;;;;;;;2.13;2.13;;;;;;;;;;6215751;23;20387;-69
2024/01/19 14:12:41;;;;;;;5.23;1.90;;;;;;;;;;6215998;23;20383;-70
2024/01/19 14:15:08;;;;;;;3.40;3.20;;;;;;;;;;6188890;23;20776;-70
2024/01/19 14:17:34;;;;;;;3.00;2.70;;;;;;;;;;6216043;23;20386;-71
2024/01/19 14:20:00;;;;;;;2.40;2.30;;;;;;;;;;6188926;23;20395;-71
2024/01/19 14:22:26;;;;;;;2.70;2.10;;;;;;;;;;6188925;23;20474;-70
2024/01/19 14:24:53;;;;;;;2.37;2.20;;;;;;;;;;6215635;23;20378;-71
2024/01/19 14:27:18;;;;;;;3.10;2.80;;;;;;;;;;6215511;23;20379;-70
2024/01/19 14:29:47;;;;;;;2.10;1.90;;;;;;;;;;6215907;23;20389;-70
2024/01/19 14:32:15;;;;;;;2.10;2.10;;;;;;;;;;6215455;23;20387;-70
2024/01/19 14:34:41;;;;;;;1.87;1.77;;;;;;;;;;6215610;23;20936;-69
2024/01/19 14:37:10;;;;;;;8.33;2.40;;;;;;;;;;6215889;23;20402;-69
2024/01/19 14:39:36;;;;;;;2.80;2.60;;;;;;;;;;6215621;23;20375;-69
2024/01/19 14:42:02;;;;;;;2.10;1.60;;;;;;;;;;6215770;23;20375;-69
2024/01/19 14:44:28;;;;;;;1.77;1.77;;;;;;;;;;6215378;23;20371;-69
2024/01/19 14:46:55;;;;;;;2.17;2.00;;;;;;;;;;6215558;23;20387;-69
2024/01/19 14:49:26;;;;;;;9.13;4.30;;;;;;;;;;6215757;23;20379;-69
2024/01/19 14:51:52;;;;;;;3.40;3.10;;;;;;;;;;6215807;23;20454;-69
2024/01/19 14:54:18;;;;;;;2.77;2.60;;;;;;;;;;6215302;23;20995;-70